createdAt,value
2023-05-10T00:01:53.666Z,81.85
2023-05-10T00:04:20.287Z,80.78
2023-05-10T00:06:46.800Z,81.14
2023-05-10T00:09:13.330Z,81.87
2023-05-10T00:11:39.820Z,82.60
2023-05-10T00:14:06.300Z,83.90
2023-05-10T00:16:32.731Z,84.08
2023-05-10T00:18:59.237Z,82.88
2023-05-10T00:21:25.752Z,83.88
2023-05-10T00:23:52.329Z,83.83
2023-05-10T00:26:18.831Z,85.44
2023-05-10T00:28:45.277Z,85.49
2023-05-10T00:31:11.833Z,84.66
2023-05-10T00:33:38.307Z,84.33
2023-05-10T00:36:04.999Z,83.81
2023-05-10T00:38:31.557Z,82.36
2023-05-10T00:40:58.070Z,82.20
2023-05-10T00:43:24.498Z,82.45
2023-05-10T00:45:51.018Z,81.73
2023-05-10T00:48:17.475Z,81.24
2023-05-10T00:50:44.539Z,80.93
2023-05-10T00:53:10.917Z,82.05
2023-05-10T00:55:37.550Z,81.66
2023-05-10T00:58:04.207Z,82.87
2023-05-10T01:00:30.875Z,83.59
2023-05-10T01:02:57.557Z,85.86
2023-05-10T01:05:24.201Z,85.33
2023-05-10T01:07:50.673Z,85.12
2023-05-10T01:10:17.290Z,84.64
2023-05-10T01:12:44.433Z,82.43
2023-05-10T01:15:11.014Z,79.96
2023-05-10T01:17:38.093Z,81.66
2023-05-10T01:20:04.765Z,81.45
2023-05-10T01:22:34.330Z,83.85
2023-05-10T01:25:03.542Z,84.72
2023-05-10T01:27:48.201Z,87.43
2023-05-10T01:30:16.180Z,86.78
2023-05-10T01:32:54.338Z,85.56
2023-05-10T01:35:33.105Z,83.31
2023-05-10T01:38:05.633Z,86.39
2023-05-10T01:40:35.000Z,85.39
2023-05-10T01:43:02.647Z,83.72
2023-05-10T01:45:32.065Z,83.82
2023-05-10T01:48:06.374Z,82.42
2023-05-10T01:50:32.988Z,85.15
2023-05-10T01:52:59.896Z,84.54
2023-05-10T01:55:27.159Z,83.54
2023-05-10T01:57:59.635Z,82.29
2023-05-10T02:00:26.138Z,79.00
2023-05-10T02:02:52.557Z,77.92
2023-05-10T02:05:19.047Z,81.62
2023-05-10T02:07:45.560Z,84.66
2023-05-10T02:10:12.324Z,85.46
2023-05-10T02:12:42.054Z,83.70
2023-05-10T02:15:08.532Z,86.34
2023-05-10T02:17:35.512Z,86.99
2023-05-10T02:20:02.184Z,87.29
2023-05-10T02:22:28.616Z,84.91
2023-05-10T02:24:55.970Z,85.11
2023-05-10T02:27:22.678Z,86.58
2023-05-10T02:29:49.118Z,87.51
2023-05-10T02:32:15.941Z,86.20
2023-05-10T02:34:42.387Z,87.58
2023-05-10T02:37:08.812Z,87.04
2023-05-10T02:39:35.222Z,88.81
2023-05-10T02:42:01.634Z,92.13
2023-05-10T02:44:28.110Z,90.54
2023-05-10T02:46:54.497Z,90.67
2023-05-10T02:49:21.029Z,90.79
2023-05-10T02:51:52.134Z,91.52
2023-05-10T02:54:22.118Z,92.05
2023-05-10T02:56:48.811Z,92.69
2023-05-10T02:59:15.330Z,94.50
2023-05-10T03:01:41.937Z,94.35
2023-05-10T03:04:08.492Z,93.50
2023-05-10T03:06:35.182Z,95.17
2023-05-10T03:09:02.210Z,94.84
2023-05-10T03:11:37.648Z,95.18
2023-05-10T03:14:04.086Z,96.91
2023-05-10T03:16:31.432Z,96.73
2023-05-10T03:19:02.191Z,96.00
2023-05-10T03:21:29.603Z,96.66
2023-05-10T03:23:59.604Z,96.49
2023-05-10T03:26:26.730Z,96.62
2023-05-10T03:28:53.446Z,97.04
2023-05-10T03:31:20.057Z,99.67
2023-05-10T03:33:49.108Z,100.00
2023-05-10T03:36:15.604Z,100.00
2023-05-10T03:38:42.108Z,99.26
2023-05-10T03:41:08.645Z,98.08
2023-05-10T03:43:35.144Z,97.76
2023-05-10T03:46:04.942Z,97.52
2023-05-10T03:48:31.628Z,98.18
2023-05-10T03:50:58.221Z,98.89
2023-05-10T03:53:24.806Z,98.49
2023-05-10T03:55:51.225Z,99.23
2023-05-10T03:58:17.643Z,99.54
2023-05-10T04:00:44.171Z,100.00
2023-05-10T04:03:10.891Z,100.00
2023-05-10T04:05:37.533Z,100.00
2023-05-10T04:08:04.329Z,100.00
2023-05-10T04:10:30.765Z,100.00
2023-05-10T04:12:57.636Z,100.00
2023-05-10T04:15:24.158Z,100.00
2023-05-10T04:17:50.666Z,100.00
2023-05-10T04:20:17.939Z,100.00
2023-05-10T04:22:44.588Z,100.00
2023-05-10T04:25:10.980Z,100.00
2023-05-10T04:27:37.429Z,100.00
2023-05-10T04:30:04.496Z,100.00
2023-05-10T04:32:31.064Z,100.00
2023-05-10T04:34:57.488Z,100.00
2023-05-10T04:37:23.998Z,100.00
2023-05-10T04:39:50.551Z,100.00
2023-05-10T04:42:17.073Z,100.00
2023-05-10T04:44:43.681Z,100.00
2023-05-10T04:47:12.510Z,100.00
2023-05-10T04:49:39.283Z,100.00
2023-05-10T04:52:07.633Z,100.00
2023-05-10T04:54:34.000Z,100.00
2023-05-10T04:57:00.367Z,100.00
2023-05-10T04:59:27.646Z,100.00
2023-05-10T05:01:55.618Z,100.00
2023-05-10T05:04:22.173Z,100.00
2023-05-10T05:06:48.727Z,100.00
2023-05-10T05:09:15.188Z,100.00
2023-05-10T05:11:41.619Z,100.00
2023-05-10T05:14:08.233Z,100.00
2023-05-10T05:16:34.809Z,100.00
2023-05-10T05:19:01.445Z,100.00
2023-05-10T05:21:28.077Z,100.00
2023-05-10T05:23:54.522Z,100.00
2023-05-10T05:26:21.232Z,100.00
2023-05-10T05:28:47.762Z,100.00
2023-05-10T05:31:14.190Z,100.00
2023-05-10T05:33:40.599Z,100.00
2023-05-10T05:36:07.178Z,100.00
2023-05-10T05:38:33.743Z,100.00
2023-05-10T05:41:00.321Z,100.00
2023-05-10T05:43:26.791Z,100.00
2023-05-10T05:45:53.566Z,100.00
2023-05-10T05:48:20.065Z,100.00
2023-05-10T05:50:46.684Z,100.00
2023-05-10T05:53:13.141Z,100.00
2023-05-10T05:55:39.607Z,100.00
2023-05-10T05:58:06.070Z,100.00
2023-05-10T06:00:32.972Z,100.00
2023-05-10T06:02:59.539Z,100.00
2023-05-10T06:05:26.107Z,100.00
2023-05-10T06:07:52.534Z,100.00
2023-05-10T06:10:18.975Z,100.00
2023-05-10T06:12:45.509Z,100.00
2023-05-10T06:15:12.471Z,100.00
2023-05-10T06:17:39.022Z,100.00
2023-05-10T06:20:05.874Z,100.00
2023-05-10T06:22:32.422Z,100.00
2023-05-10T06:24:58.843Z,100.00
2023-05-10T06:27:25.422Z,100.00
2023-05-10T06:29:56.518Z,100.00
2023-05-10T06:32:28.776Z,100.00
2023-05-10T06:34:55.187Z,100.00
2023-05-10T06:37:21.601Z,100.00
2023-05-10T06:39:48.129Z,100.00
2023-05-10T06:42:14.592Z,100.00
2023-05-10T06:44:41.057Z,100.00
2023-05-10T06:47:07.551Z,100.00
2023-05-10T06:49:34.037Z,100.00
2023-05-10T06:52:00.518Z,99.96
2023-05-10T06:54:27.048Z,100.00
2023-05-10T06:56:53.496Z,100.00
2023-05-10T06:59:20.034Z,100.00
2023-05-10T07:01:46.677Z,100.00
2023-05-10T07:04:13.214Z,100.00
2023-05-10T07:06:39.744Z,100.00
2023-05-10T07:09:06.265Z,100.00
2023-05-10T07:11:32.645Z,100.00
2023-05-10T07:13:59.076Z,100.00
2023-05-10T07:16:25.675Z,100.00
2023-05-10T07:18:52.174Z,100.00
2023-05-10T07:21:18.586Z,100.00
2023-05-10T07:23:45.375Z,100.00
2023-05-10T07:26:11.955Z,100.00
2023-05-10T07:28:38.551Z,100.00
2023-05-10T07:31:05.160Z,100.00
2023-05-10T07:33:31.705Z,100.00
2023-05-10T07:35:58.321Z,100.00
2023-05-10T07:38:24.838Z,100.00
2023-05-10T07:40:51.248Z,100.00
2023-05-10T07:43:17.966Z,100.00
2023-05-10T07:45:44.521Z,100.00
2023-05-10T07:48:11.040Z,100.00
2023-05-10T07:50:37.443Z,100.00
2023-05-10T07:53:03.947Z,100.00
2023-05-10T07:55:30.487Z,99.05
2023-05-10T07:57:57.381Z,99.24
2023-05-10T08:00:23.960Z,98.71
2023-05-10T08:02:50.577Z,98.04
2023-05-10T08:05:17.434Z,96.86
2023-05-10T08:07:44.280Z,96.59
2023-05-10T08:10:10.823Z,96.64
2023-05-10T08:12:37.777Z,96.79
2023-05-10T08:15:04.495Z,95.07
2023-05-10T08:17:31.076Z,96.94
2023-05-10T08:19:57.528Z,94.18
2023-05-10T08:22:23.976Z,94.77
2023-05-10T08:24:50.520Z,94.62
2023-05-10T08:27:17.012Z,95.61
2023-05-10T08:29:50.003Z,93.61
2023-05-10T08:32:17.112Z,93.38
2023-05-10T08:34:43.642Z,94.98
2023-05-10T08:37:10.122Z,93.45
2023-05-10T08:39:36.544Z,93.25
2023-05-10T08:42:03.319Z,93.04
2023-05-10T08:44:30.795Z,90.75
2023-05-10T08:46:57.248Z,91.97
2023-05-10T08:49:23.671Z,91.01
2023-05-10T08:51:53.390Z,91.38
2023-05-10T08:54:19.881Z,89.89
2023-05-10T08:56:48.569Z,89.19
2023-05-10T08:59:16.126Z,87.77
2023-05-10T09:01:43.188Z,89.90
2023-05-10T09:04:09.722Z,88.25
2023-05-10T09:06:36.220Z,87.63
2023-05-10T09:09:02.675Z,86.52
2023-05-10T09:11:29.268Z,85.41
2023-05-10T09:13:55.753Z,85.46
2023-05-10T09:16:22.565Z,84.80
2023-05-10T09:18:49.351Z,85.65
2023-05-10T09:21:15.774Z,83.37
2023-05-10T09:23:48.149Z,85.90
2023-05-10T09:26:15.020Z,86.73
2023-05-10T09:28:54.338Z,87.43
2023-05-10T09:31:20.932Z,85.95
2023-05-10T09:33:47.700Z,87.29
2023-05-10T09:36:14.356Z,86.65
2023-05-10T09:38:50.446Z,86.97
2023-05-10T09:41:20.331Z,87.72
2023-05-10T09:43:46.787Z,87.79
2023-05-10T09:46:13.353Z,88.91
2023-05-10T09:48:41.765Z,88.42
2023-05-10T09:51:08.132Z,87.34
2023-05-10T09:53:34.597Z,86.42
2023-05-10T09:56:01.035Z,86.74
2023-05-10T09:58:27.443Z,83.01
2023-05-10T10:00:53.902Z,80.43
2023-05-10T10:03:20.887Z,79.23
2023-05-10T10:05:47.604Z,75.96
2023-05-10T10:08:14.203Z,68.52
2023-05-10T10:10:40.698Z,71.33
2023-05-10T10:13:07.174Z,75.92
2023-05-10T10:15:33.974Z,77.68
2023-05-10T10:18:00.472Z,78.65
2023-05-10T10:20:27.061Z,76.74
2023-05-10T10:22:54.265Z,79.11
2023-05-10T10:25:21.038Z,77.84
2023-05-10T10:27:53.589Z,79.01
2023-05-10T10:30:26.095Z,81.21
2023-05-10T10:33:24.366Z,78.87
2023-05-10T10:35:54.310Z,78.51
2023-05-10T10:38:20.827Z,75.83
2023-05-10T10:40:47.677Z,73.53
2023-05-10T10:43:27.075Z,72.30
2023-05-10T10:46:12.270Z,72.77
2023-05-10T10:48:38.851Z,71.31
2023-05-10T10:51:05.389Z,69.56
2023-05-10T10:53:31.872Z,67.23
2023-05-10T10:56:08.402Z,70.11
2023-05-10T10:58:35.066Z,72.12
2023-05-10T11:01:17.683Z,70.91
2023-05-10T11:03:59.602Z,74.48
2023-05-10T11:06:32.446Z,78.71
2023-05-10T11:08:58.957Z,80.46
2023-05-10T11:11:25.634Z,80.88
2023-05-10T11:13:52.131Z,82.94
2023-05-10T11:16:21.633Z,84.77
2023-05-10T11:19:02.019Z,85.44
2023-05-10T11:21:29.116Z,84.06
2023-05-10T11:23:59.260Z,82.37
2023-05-10T11:26:26.151Z,83.62
2023-05-10T11:28:55.810Z,84.29
2023-05-10T11:31:22.523Z,85.23
2023-05-10T11:33:50.462Z,84.87
2023-05-10T11:36:17.575Z,86.04
2023-05-10T11:38:44.033Z,87.77
2023-05-10T11:41:10.646Z,90.14
2023-05-10T11:43:37.097Z,89.87
2023-05-10T11:46:03.617Z,89.58
2023-05-10T11:48:30.560Z,89.35
2023-05-10T11:50:57.111Z,91.96
2023-05-10T11:53:24.806Z,90.59
2023-05-10T11:55:52.437Z,93.30
2023-05-10T11:58:19.031Z,87.61
2023-05-10T12:00:45.524Z,84.43
2023-05-10T12:03:12.277Z,87.59
2023-05-10T12:05:39.401Z,90.34
2023-05-10T12:08:16.479Z,90.75
2023-05-10T12:10:43.067Z,86.20
2023-05-10T12:13:12.913Z,86.30
2023-05-10T12:15:39.348Z,89.44
2023-05-10T12:18:05.807Z,89.13
2023-05-10T12:20:32.377Z,87.21
2023-05-10T12:23:00.519Z,86.93
2023-05-10T12:25:30.463Z,87.43
2023-05-10T12:27:57.801Z,85.86
2023-05-10T12:30:28.013Z,84.33
2023-05-10T12:32:54.652Z,86.71
2023-05-10T12:35:21.107Z,86.55
2023-05-10T12:37:47.544Z,87.88
2023-05-10T12:40:14.040Z,89.85
2023-05-10T12:42:40.579Z,89.33
2023-05-10T12:45:07.368Z,88.02
2023-05-10T12:47:33.865Z,88.13
2023-05-10T12:50:00.701Z,88.48
2023-05-10T12:52:27.210Z,87.49
2023-05-10T12:54:53.702Z,90.03
2023-05-10T12:57:21.079Z,88.61
2023-05-10T12:59:47.636Z,88.46
2023-05-10T13:02:14.343Z,84.34
2023-05-10T13:04:41.042Z,85.33
2023-05-10T13:07:07.864Z,84.88
2023-05-10T13:09:34.289Z,86.58
2023-05-10T13:12:00.664Z,84.93
2023-05-10T13:14:27.171Z,83.91
2023-05-10T13:16:53.678Z,85.10
2023-05-10T13:19:20.175Z,84.46
2023-05-10T13:21:46.664Z,84.43
2023-05-10T13:24:13.180Z,82.94
2023-05-10T13:26:39.589Z,84.42
2023-05-10T13:29:06.078Z,84.93
2023-05-10T13:31:32.559Z,83.15
2023-05-10T13:33:58.981Z,82.26
2023-05-10T13:36:25.422Z,81.47
2023-05-10T13:38:51.825Z,81.43
2023-05-10T13:41:18.303Z,80.38
2023-05-10T13:43:44.835Z,81.44
2023-05-10T13:46:11.265Z,79.90
2023-05-10T13:48:39.022Z,78.83
2023-05-10T13:51:05.725Z,81.42
2023-05-10T13:53:32.255Z,81.63
2023-05-10T13:55:58.702Z,82.45
2023-05-10T13:58:25.670Z,85.17
2023-05-10T14:00:52.109Z,87.65
2023-05-10T14:03:18.837Z,87.79
2023-05-10T14:05:45.494Z,87.16
2023-05-10T14:08:11.971Z,88.58
2023-05-10T14:10:38.437Z,91.93
2023-05-10T14:13:04.942Z,92.16
2023-05-10T14:15:31.413Z,93.83
2023-05-10T14:17:57.930Z,93.77
2023-05-10T14:20:24.533Z,93.46
2023-05-10T14:22:51.028Z,93.20
2023-05-10T14:25:17.631Z,92.89
2023-05-10T14:27:44.360Z,95.29
2023-05-10T14:30:10.986Z,95.46
2023-05-10T14:32:37.376Z,94.06
2023-05-10T14:35:04.005Z,93.28
2023-05-10T14:37:30.512Z,95.11
2023-05-10T14:39:56.916Z,94.54
2023-05-10T14:42:23.321Z,94.81
2023-05-10T14:44:49.806Z,95.40
2023-05-10T14:47:16.188Z,95.48
2023-05-10T14:49:42.560Z,94.13
2023-05-10T14:52:10.700Z,93.90
2023-05-10T14:54:37.270Z,93.72
2023-05-10T14:57:03.725Z,93.92
2023-05-10T14:59:30.104Z,95.18
2023-05-10T15:01:57.019Z,96.03
2023-05-10T15:04:24.413Z,95.55
2023-05-10T15:06:51.965Z,96.66
2023-05-10T15:09:18.544Z,95.88
2023-05-10T15:11:44.893Z,95.70
2023-05-10T15:14:11.278Z,95.55
2023-05-10T15:16:37.765Z,96.25
2023-05-10T15:19:04.386Z,96.42
2023-05-10T15:21:31.019Z,94.60
2023-05-10T15:23:57.590Z,94.67
2023-05-10T15:26:24.199Z,94.92
2023-05-10T15:28:50.651Z,95.91
2023-05-10T15:31:17.297Z,94.10
2023-05-10T15:33:43.864Z,94.60
2023-05-10T15:36:10.233Z,96.71
2023-05-10T15:38:36.713Z,97.75
2023-05-10T15:41:03.129Z,96.21
2023-05-10T15:43:29.482Z,95.71
2023-05-10T15:45:55.950Z,95.16
2023-05-10T15:48:22.425Z,95.27
2023-05-10T15:50:48.973Z,96.30
2023-05-10T15:53:15.450Z,97.22
2023-05-10T15:55:41.909Z,98.45
2023-05-10T15:58:08.402Z,97.96
2023-05-10T16:00:35.035Z,97.13
2023-05-10T16:03:01.684Z,97.98
2023-05-10T16:05:28.375Z,97.81
2023-05-10T16:07:54.952Z,97.54
2023-05-10T16:10:21.377Z,97.73
2023-05-10T16:12:47.908Z,96.61
2023-05-10T16:15:14.409Z,96.18
2023-05-10T16:17:40.947Z,95.92
2023-05-10T16:20:07.784Z,96.51
2023-05-10T16:22:34.329Z,96.17
2023-05-10T16:25:00.757Z,96.80
2023-05-10T16:27:27.295Z,97.70
2023-05-10T16:29:53.934Z,98.87
2023-05-10T16:32:20.427Z,97.73
2023-05-10T16:34:46.858Z,97.81
2023-05-10T16:37:13.456Z,98.64
2023-05-10T16:39:39.982Z,97.16
2023-05-10T16:42:06.395Z,97.82
2023-05-10T16:44:32.829Z,97.92
2023-05-10T16:46:59.535Z,97.77
2023-05-10T16:49:26.327Z,99.00
2023-05-10T16:51:52.974Z,98.39
2023-05-10T16:54:19.448Z,97.77
2023-05-10T16:56:45.925Z,98.06
2023-05-10T16:59:12.424Z,98.45
2023-05-10T17:01:38.806Z,98.52
2023-05-10T17:04:05.267Z,98.42
2023-05-10T17:06:31.719Z,98.12
2023-05-10T17:08:58.102Z,98.67
2023-05-10T17:11:24.574Z,98.36
2023-05-10T17:13:51.095Z,99.40
2023-05-10T17:16:17.685Z,98.93
2023-05-10T17:18:44.273Z,98.10
2023-05-10T17:21:10.804Z,98.25
2023-05-10T17:23:37.272Z,98.80
2023-05-10T17:26:04.237Z,98.37
2023-05-10T17:28:30.709Z,97.67
2023-05-10T17:30:57.328Z,99.28
2023-05-10T17:33:23.759Z,99.33
2023-05-10T17:35:50.232Z,100.00
2023-05-10T17:38:16.717Z,100.00
2023-05-10T17:40:43.098Z,100.00
2023-05-10T17:43:09.598Z,100.00
2023-05-10T17:45:36.108Z,100.00
2023-05-10T17:48:03.083Z,100.00
2023-05-10T17:50:29.625Z,99.38
2023-05-10T17:52:56.000Z,99.54
2023-05-10T17:55:22.455Z,98.99
2023-05-10T17:57:51.132Z,99.20
2023-05-10T18:00:18.598Z,98.25
2023-05-10T18:02:45.515Z,97.88
2023-05-10T18:05:12.127Z,98.01
2023-05-10T18:07:38.658Z,98.29
2023-05-10T18:10:05.236Z,99.14
2023-05-10T18:12:31.716Z,98.78
2023-05-10T18:14:58.333Z,99.84
2023-05-10T18:17:24.732Z,100.00
2023-05-10T18:19:51.335Z,100.00
2023-05-10T18:22:17.788Z,100.00
2023-05-10T18:24:44.255Z,100.00
2023-05-10T18:27:10.748Z,100.00
2023-05-10T18:29:37.226Z,100.00
2023-05-10T18:32:03.705Z,100.00
2023-05-10T18:34:30.400Z,100.00
2023-05-10T18:36:56.885Z,100.00
2023-05-10T18:39:23.633Z,99.96
2023-05-10T18:41:50.274Z,100.00
2023-05-10T18:44:16.749Z,100.00
2023-05-10T18:46:43.206Z,100.00
2023-05-10T18:49:10.013Z,100.00
2023-05-10T18:51:36.557Z,100.00
2023-05-10T18:54:03.206Z,100.00
2023-05-10T18:56:29.938Z,100.00
2023-05-10T18:58:56.466Z,100.00
2023-05-10T19:01:22.969Z,100.00
2023-05-10T19:03:49.643Z,100.00
2023-05-10T19:06:16.042Z,100.00
2023-05-10T19:08:42.508Z,100.00
2023-05-10T19:11:09.096Z,100.00
2023-05-10T19:13:35.556Z,100.00
2023-05-10T19:16:05.606Z,100.00
2023-05-10T19:18:33.275Z,100.00
2023-05-10T19:21:00.502Z,100.00
2023-05-10T19:23:29.109Z,100.00
2023-05-10T19:25:55.653Z,100.00
2023-05-10T19:28:22.162Z,100.00
2023-05-10T19:30:48.702Z,100.00
2023-05-10T19:33:15.289Z,100.00
2023-05-10T19:35:41.766Z,100.00
2023-05-10T19:38:08.301Z,100.00
2023-05-10T19:40:34.778Z,100.00
2023-05-10T19:43:01.234Z,100.00
2023-05-10T19:45:27.737Z,100.00
2023-05-10T19:47:54.210Z,100.00
2023-05-10T19:50:20.698Z,100.00
2023-05-10T19:52:47.386Z,100.00
2023-05-10T19:55:15.271Z,100.00
2023-05-10T19:57:41.867Z,100.00
2023-05-10T20:00:08.615Z,100.00
2023-05-10T20:02:35.174Z,100.00
2023-05-10T20:05:01.657Z,100.00
2023-05-10T20:07:28.157Z,100.00
2023-05-10T20:09:54.703Z,100.00
2023-05-10T20:12:21.278Z,100.00
2023-05-10T20:14:47.758Z,100.00
2023-05-10T20:17:14.182Z,100.00
2023-05-10T20:19:40.724Z,100.00
2023-05-10T20:22:07.218Z,100.00
2023-05-10T20:24:33.766Z,100.00
2023-05-10T20:27:00.254Z,100.00
2023-05-10T20:29:26.642Z,100.00
2023-05-10T20:31:53.144Z,100.00
2023-05-10T20:34:19.588Z,100.00
2023-05-10T20:36:46.080Z,100.00
2023-05-10T20:39:12.573Z,100.00
2023-05-10T20:41:39.215Z,100.00
2023-05-10T20:44:05.654Z,100.00
2023-05-10T20:46:32.550Z,100.00
2023-05-10T20:48:59.007Z,100.00
2023-05-10T20:51:25.590Z,100.00
2023-05-10T20:53:52.022Z,100.00
2023-05-10T20:56:18.453Z,100.00
2023-05-10T20:58:44.925Z,100.00
2023-05-10T21:01:11.511Z,100.00
2023-05-10T21:03:38.015Z,100.00
2023-05-10T21:06:04.410Z,100.00
2023-05-10T21:08:30.821Z,100.00
2023-05-10T21:10:57.227Z,100.00
2023-05-10T21:13:23.706Z,100.00
2023-05-10T21:15:50.226Z,100.00
2023-05-10T21:18:16.708Z,100.00
2023-05-10T21:20:43.255Z,100.00
2023-05-10T21:23:10.073Z,100.00
2023-05-10T21:25:36.467Z,100.00
2023-05-10T21:28:02.942Z,100.00
2023-05-10T21:30:29.435Z,100.00
2023-05-10T21:32:55.965Z,100.00
2023-05-10T21:35:22.510Z,100.00
2023-05-10T21:37:49.035Z,100.00
2023-05-10T21:40:15.667Z,100.00
2023-05-10T21:42:42.165Z,100.00
2023-05-10T21:45:08.753Z,100.00
2023-05-10T21:47:35.282Z,100.00
2023-05-10T21:50:01.823Z,100.00
2023-05-10T21:52:28.271Z,100.00
2023-05-10T21:54:54.673Z,100.00
2023-05-10T21:57:21.038Z,100.00
2023-05-10T21:59:47.488Z,100.00
2023-05-10T22:02:14.026Z,100.00
2023-05-10T22:04:40.499Z,100.00
2023-05-10T22:07:07.162Z,100.00
2023-05-10T22:09:33.674Z,100.00
2023-05-10T22:12:00.186Z,100.00
2023-05-10T22:14:26.683Z,100.00
2023-05-10T22:16:53.123Z,100.00
2023-05-10T22:19:19.544Z,100.00
2023-05-10T22:21:46.099Z,100.00
2023-05-10T22:24:12.609Z,100.00
2023-05-10T22:26:39.033Z,100.00
2023-05-10T22:29:05.493Z,100.00
2023-05-10T22:31:31.924Z,100.00
2023-05-10T22:33:58.423Z,100.00
2023-05-10T22:36:24.905Z,100.00
2023-05-10T22:38:51.324Z,100.00
2023-05-10T22:41:18.006Z,100.00
2023-05-10T22:43:44.514Z,100.00
2023-05-10T22:46:10.973Z,100.00
2023-05-10T22:48:37.500Z,100.00
2023-05-10T22:51:04.030Z,100.00
2023-05-10T22:53:30.460Z,100.00
2023-05-10T22:55:56.976Z,100.00
2023-05-10T22:58:23.493Z,100.00
2023-05-10T23:00:49.909Z,100.00
2023-05-10T23:03:16.429Z,100.00
2023-05-10T23:05:42.905Z,100.00
2023-05-10T23:08:09.289Z,100.00
2023-05-10T23:10:35.674Z,100.00
2023-05-10T23:13:02.363Z,100.00
2023-05-10T23:15:28.798Z,100.00
2023-05-10T23:17:55.390Z,100.00
2023-05-10T23:20:22.055Z,100.00
2023-05-10T23:22:48.923Z,100.00
2023-05-10T23:25:15.522Z,100.00
2023-05-10T23:27:42.124Z,100.00
2023-05-10T23:30:11.487Z,100.00
2023-05-10T23:32:37.959Z,100.00
2023-05-10T23:35:04.681Z,100.00
2023-05-10T23:37:31.063Z,100.00
2023-05-10T23:39:57.435Z,100.00
2023-05-10T23:42:23.870Z,100.00
2023-05-10T23:44:50.787Z,100.00
2023-05-10T23:47:17.141Z,100.00
2023-05-10T23:49:43.555Z,100.00
2023-05-10T23:52:10.030Z,100.00
2023-05-10T23:54:36.553Z,100.00
2023-05-10T23:57:03.009Z,100.00
2023-05-10T23:59:29.557Z,100.00
